Time;durP1;ratioP1;P1;durP2;ratioP2;P2;SDS_P1;SDS_P2;PMS_P1;PMS_P2;Temp;Humidity;BMP_temperature;BMP_pressure;BME280_temperature;BME280_humidity;BME280_pressure;Samples;Min_cycle;Max_cycle;Signal;HPM_P1;HPM_P2
2021/08/09 00:00:09;;;;;;;13.80;8.07;;;;;;;;;;5010701;28;20420;-52
2021/08/09 00:02:35;;;;;;;13.63;8.63;;;;;;;;;;5032710;28;20032;-52
2021/08/09 00:05:01;;;;;;;11.45;8.70;;;;;;;;;;5032902;28;20026;-53
2021/08/09 00:07:27;;;;;;;11.30;7.70;;;;;;;;;;5032833;28;20469;-49
2021/08/09 00:09:53;;;;;;;11.60;7.20;;;;;;;;;;5032843;28;20037;-54
2021/08/09 00:12:20;;;;;;;12.93;8.27;;;;;;;;;;5031589;28;20034;-51
2021/08/09 00:14:46;;;;;;;13.52;8.90;;;;;;;;;;5032721;28;20470;-51
2021/08/09 00:17:12;;;;;;;13.38;8.95;;;;;;;;;;5032785;28;20029;-51
2021/08/09 00:19:38;;;;;;;17.55;10.95;;;;;;;;;;5031415;28;20113;-52
2021/08/09 00:22:04;;;;;;;18.67;12.00;;;;;;;;;;5031567;28;20029;-53
2021/08/09 00:24:31;;;;;;;21.70;14.23;;;;;;;;;;5032895;28;20022;-53
2021/08/09 00:26:57;;;;;;;13.73;9.55;;;;;;;;;;5032665;28;20022;-53
2021/08/09 00:29:23;;;;;;;14.30;9.85;;;;;;;;;;5032547;28;20091;-53
2021/08/09 00:31:49;;;;;;;15.13;10.32;;;;;;;;;;5032496;28;20034;-52
2021/08/09 00:34:15;;;;;;;23.75;17.40;;;;;;;;;;5036180;28;20025;-52
2021/08/09 00:36:41;;;;;;;22.00;15.38;;;;;;;;;;5036408;28;20018;-51
2021/08/09 00:39:07;;;;;;;28.20;18.20;;;;;;;;;;5036231;28;20076;-52
2021/08/09 00:41:33;;;;;;;17.75;10.75;;;;;;;;;;5036285;28;20075;-52
2021/08/09 00:43:59;;;;;;;25.75;16.40;;;;;;;;;;5036052;28;20557;-52
2021/08/09 00:46:29;;;;;;;30.58;18.23;;;;;;;;;;5036065;28;20029;-51
2021/08/09 00:48:55;;;;;;;22.42;16.15;;;;;;;;;;5036042;28;20052;-50
2021/08/09 00:51:21;;;;;;;21.45;16.58;;;;;;;;;;5036195;28;20029;-50
2021/08/09 00:53:47;;;;;;;17.92;12.43;;;;;;;;;;5034955;28;20125;-50
2021/08/09 00:56:13;;;;;;;11.38;9.05;;;;;;;;;;5035863;28;20017;-52
2021/08/09 00:58:40;;;;;;;30.38;19.42;;;;;;;;;;5035960;28;20100;-52
2021/08/09 01:01:06;;;;;;;26.00;16.67;;;;;;;;;;5035451;28;20080;-50
2021/08/09 01:03:32;;;;;;;28.02;16.05;;;;;;;;;;5035683;28;20040;-51
2021/08/09 01:05:59;;;;;;;14.02;8.93;;;;;;;;;;5035789;28;20032;-51
2021/08/09 01:08:28;;;;;;;51.25;35.80;;;;;;;;;;5035665;28;20028;-52
2021/08/09 01:11:12;;;;;;;18.75;11.70;;;;;;;;;;5036075;28;20067;-50
2021/08/09 01:13:38;;;;;;;28.58;19.83;;;;;;;;;;5035677;28;20022;-51
2021/08/09 01:16:13;;;;;;;15.43;9.52;;;;;;;;;;5035378;28;20082;-52
2021/08/09 01:18:39;;;;;;;16.05;12.38;;;;;;;;;;5035637;28;20022;-52
2021/08/09 01:21:06;;;;;;;18.73;12.65;;;;;;;;;;5035337;28;20041;-54
2021/08/09 01:23:50;;;;;;;12.32;8.88;;;;;;;;;;5035395;28;20066;-54
2021/08/09 01:26:24;;;;;;;18.48;8.30;;;;;;;;;;5035500;28;20477;-52
2021/08/09 01:28:52;;;;;;;10.80;7.35;;;;;;;;;;5035421;28;20495;-51
2021/08/09 01:31:18;;;;;;;10.98;6.95;;;;;;;;;;5035431;28;20385;-54
2021/08/09 01:33:47;;;;;;;8.40;6.20;;;;;;;;;;5035432;28;20445;-53
2021/08/09 01:36:13;;;;;;;13.35;7.10;;;;;;;;;;5035261;28;20028;-50
2021/08/09 01:38:40;;;;;;;21.77;14.05;;;;;;;;;;5035527;28;20022;-50
2021/08/09 01:41:06;;;;;;;19.35;12.55;;;;;;;;;;5035221;28;20048;-50
2021/08/09 01:43:34;;;;;;;34.10;21.27;;;;;;;;;;5035020;28;20021;-50
2021/08/09 01:46:00;;;;;;;62.95;43.17;;;;;;;;;;5034693;28;20033;-50
2021/08/09 01:48:27;;;;;;;16.58;11.82;;;;;;;;;;5035363;28;20029;-53
2021/08/09 01:50:54;;;;;;;29.38;22.50;;;;;;;;;;5034948;28;20040;-52
2021/08/09 01:53:20;;;;;;;18.75;13.30;;;;;;;;;;5034894;28;20049;-52
2021/08/09 01:55:49;;;;;;;29.20;17.65;;;;;;;;;;5034778;28;20474;-51
2021/08/09 01:58:16;;;;;;;22.95;14.13;;;;;;;;;;5034723;28;20478;-53
2021/08/09 02:00:42;;;;;;;27.48;20.55;;;;;;;;;;5034469;28;20049;-51
2021/08/09 02:03:08;;;;;;;21.00;13.35;;;;;;;;;;5034792;28;20033;-52
2021/08/09 02:05:34;;;;;;;25.55;15.98;;;;;;;;;;5034803;28;20021;-52
2021/08/09 02:08:03;;;;;;;12.40;8.00;;;;;;;;;;5034631;28;20075;-55
2021/08/09 02:10:30;;;;;;;9.98;5.78;;;;;;;;;;5034430;28;20034;-53
2021/08/09 02:12:56;;;;;;;11.95;6.50;;;;;;;;;;5034461;28;20481;-53
2021/08/09 02:15:30;;;;;;;9.55;6.07;;;;;;;;;;5034535;28;20075;-54
2021/08/09 02:18:04;;;;;;;8.85;5.47;;;;;;;;;;5034608;28;20021;-54
2021/08/09 02:20:33;;;;;;;9.35;5.35;;;;;;;;;;5034401;28;20017;-54
2021/08/09 02:23:02;;;;;;;9.73;5.85;;;;;;;;;;5034476;28;20029;-54
2021/08/09 02:25:32;;;;;;;9.05;5.22;;;;;;;;;;5032960;28;20413;-53
2021/08/09 02:28:14;;;;;;;10.27;5.80;;;;;;;;;;5034369;28;20075;-53
2021/08/09 02:30:51;;;;;;;8.27;5.22;;;;;;;;;;5032996;28;20498;-53
2021/08/09 02:33:18;;;;;;;9.05;5.40;;;;;;;;;;5034517;28;20046;-54
2021/08/09 02:35:45;;;;;;;10.15;5.00;;;;;;;;;;5033968;28;20570;-53
2021/08/09 02:38:13;;;;;;;6.65;4.43;;;;;;;;;;5034221;28;20032;-54
2021/08/09 02:40:40;;;;;;;6.78;4.78;;;;;;;;;;5034024;28;20478;-54
2021/08/09 02:43:07;;;;;;;6.95;4.65;;;;;;;;;;5034324;28;20018;-53
2021/08/09 02:45:33;;;;;;;8.40;4.43;;;;;;;;;;5034095;28;20104;-53
2021/08/09 02:47:59;;;;;;;6.43;4.47;;;;;;;;;;5033924;28;20108;-54
2021/08/09 02:50:26;;;;;;;7.10;4.80;;;;;;;;;;5033719;28;20040;-53
2021/08/09 02:52:52;;;;;;;7.45;4.60;;;;;;;;;;5033932;28;20021;-54
2021/08/09 02:55:19;;;;;;;9.18;4.80;;;;;;;;;;5033531;28;20033;-54
2021/08/09 02:57:47;;;;;;;6.55;4.20;;;;;;;;;;5033261;28;20021;-54
2021/08/09 03:00:13;;;;;;;6.18;4.22;;;;;;;;;;5033559;28;20052;-53
2021/08/09 03:02:42;;;;;;;6.47;4.22;;;;;;;;;;5033857;28;20023;-53
2021/08/09 03:05:09;;;;;;;7.40;4.57;;;;;;;;;;5033754;28;20029;-54
2021/08/09 03:07:36;;;;;;;10.88;5.28;;;;;;;;;;5033882;28;20021;-54
2021/08/09 03:10:06;;;;;;;9.05;5.70;;;;;;;;;;5033815;28;20091;-52
2021/08/09 03:12:35;;;;;;;10.10;5.50;;;;;;;;;;5033618;28;20028;-53
2021/08/09 03:15:02;;;;;;;9.75;6.07;;;;;;;;;;5033601;28;20389;-54
2021/08/09 03:17:28;;;;;;;6.75;5.97;;;;;;;;;;5033468;28;20097;-54
2021/08/09 03:19:54;;;;;;;7.15;5.03;;;;;;;;;;5033288;28;20057;-54
2021/08/09 03:22:20;;;;;;;9.32;4.90;;;;;;;;;;5033324;28;20489;-53
2021/08/09 03:24:46;;;;;;;7.47;4.90;;;;;;;;;;5033509;28;20036;-54
2021/08/09 03:27:12;;;;;;;6.22;4.20;;;;;;;;;;5033379;28;20112;-54
2021/08/09 03:29:39;;;;;;;7.18;4.07;;;;;;;;;;5033229;28;20072;-54
2021/08/09 03:32:05;;;;;;;4.60;3.75;;;;;;;;;;5033316;28;20030;-54
2021/08/09 03:34:33;;;;;;;6.22;3.67;;;;;;;;;;5033485;28;20072;-54
2021/08/09 03:36:59;;;;;;;8.00;3.47;;;;;;;;;;5033367;28;20018;-53
2021/08/09 03:39:25;;;;;;;3.67;3.10;;;;;;;;;;5033652;28;20120;-53
2021/08/09 03:41:51;;;;;;;7.35;2.92;;;;;;;;;;5033170;28;20076;-54
2021/08/09 03:44:17;;;;;;;3.75;3.03;;;;;;;;;;5033327;28;20025;-54
2021/08/09 03:46:43;;;;;;;5.60;2.92;;;;;;;;;;5033244;28;20053;-54
2021/08/09 03:49:10;;;;;;;3.63;2.92;;;;;;;;;;5033085;28;20064;-54
2021/08/09 03:51:39;;;;;;;4.32;3.05;;;;;;;;;;5033415;28;20060;-54
2021/08/09 03:54:06;;;;;;;5.57;2.92;;;;;;;;;;5033034;28;20021;-55
2021/08/09 03:56:32;;;;;;;5.70;2.55;;;;;;;;;;5033040;28;20029;-55
2021/08/09 03:58:58;;;;;;;5.43;2.88;;;;;;;;;;5033042;28;20029;-53
2021/08/09 04:01:24;;;;;;;4.50;2.63;;;;;;;;;;5032824;28;20541;-54
2021/08/09 04:03:50;;;;;;;4.35;2.63;;;;;;;;;;5033049;28;20100;-54
2021/08/09 04:06:17;;;;;;;4.63;2.50;;;;;;;;;;5032899;28;20508;-55
2021/08/09 04:08:43;;;;;;;5.40;3.17;;;;;;;;;;5035949;28;20030;-53
2021/08/09 04:11:09;;;;;;;4.82;2.60;;;;;;;;;;5036813;28;20038;-54
2021/08/09 04:13:36;;;;;;;4.28;2.40;;;;;;;;;;5035468;28;20038;-54
2021/08/09 04:16:02;;;;;;;14.75;9.25;;;;;;;;;;5036699;28;20026;-54
2021/08/09 04:18:28;;;;;;;6.72;4.18;;;;;;;;;;5036715;28;20380;-54
2021/08/09 04:20:54;;;;;;;5.68;2.47;;;;;;;;;;5036575;28;20030;-54
2021/08/09 04:23:20;;;;;;;5.18;2.35;;;;;;;;;;5036650;28;20027;-53
2021/08/09 04:25:46;;;;;;;6.07;2.50;;;;;;;;;;5036779;28;20351;-54
2021/08/09 04:28:12;;;;;;;5.03;3.00;;;;;;;;;;5036564;28;20056;-54
2021/08/09 04:30:38;;;;;;;5.68;2.45;;;;;;;;;;5036266;28;20029;-52
2021/08/09 04:33:04;;;;;;;3.90;2.55;;;;;;;;;;5036335;28;20021;-53
2021/08/09 04:35:31;;;;;;;6.28;2.60;;;;;;;;;;5036325;28;20050;-54
2021/08/09 04:37:57;;;;;;;5.85;2.42;;;;;;;;;;5036355;28;20079;-53
2021/08/09 04:40:23;;;;;;;8.00;2.90;;;;;;;;;;5036226;28;20080;-53
2021/08/09 04:42:49;;;;;;;10.13;3.10;;;;;;;;;;5036436;28;20162;-54
2021/08/09 04:45:15;;;;;;;8.05;2.67;;;;;;;;;;5036434;28;20026;-54
2021/08/09 04:47:44;;;;;;;6.68;2.20;;;;;;;;;;5036158;28;20021;-53
2021/08/09 04:50:10;;;;;;;9.02;2.75;;;;;;;;;;5035873;28;20528;-53
2021/08/09 04:52:39;;;;;;;6.25;2.65;;;;;;;;;;5036028;28;20458;-53
2021/08/09 04:55:08;;;;;;;5.47;2.58;;;;;;;;;;5036080;28;20034;-54
2021/08/09 04:57:34;;;;;;;6.88;2.70;;;;;;;;;;5036246;28;20029;-54
2021/08/09 05:00:00;;;;;;;4.60;2.55;;;;;;;;;;5035797;28;20132;-53
2021/08/09 05:02:26;;;;;;;4.78;3.38;;;;;;;;;;5035829;28;20116;-53
2021/08/09 05:04:52;;;;;;;4.18;2.83;;;;;;;;;;5035828;28;20021;-50
2021/08/09 05:07:18;;;;;;;36.55;27.58;;;;;;;;;;5035965;28;20033;-51
2021/08/09 05:09:44;;;;;;;18.73;14.73;;;;;;;;;;5035640;28;20474;-53
2021/08/09 05:12:10;;;;;;;6.85;5.45;;;;;;;;;;5035672;28;20028;-52
2021/08/09 05:14:36;;;;;;;4.65;3.35;;;;;;;;;;5035508;28;20030;-52
2021/08/09 05:17:03;;;;;;;9.18;3.13;;;;;;;;;;5035555;28;20096;-52
2021/08/09 05:19:30;;;;;;;8.10;2.40;;;;;;;;;;5034510;28;20040;-52
2021/08/09 05:21:56;;;;;;;10.30;2.75;;;;;;;;;;5035706;28;20163;-53
2021/08/09 05:24:22;;;;;;;7.78;3.08;;;;;;;;;;5035317;28;20378;-54
2021/08/09 05:26:48;;;;;;;6.88;3.15;;;;;;;;;;5035465;28;20061;-53
2021/08/09 05:29:14;;;;;;;4.35;3.38;;;;;;;;;;5035211;28;20030;-52
2021/08/09 05:31:41;;;;;;;4.63;2.92;;;;;;;;;;5035291;28;20032;-52
2021/08/09 05:34:07;;;;;;;4.93;2.35;;;;;;;;;;5035294;28;20100;-52
2021/08/09 05:36:33;;;;;;;6.05;2.75;;;;;;;;;;5035049;28;20070;-49
2021/08/09 05:39:00;;;;;;;4.30;2.55;;;;;;;;;;5035651;28;20029;-49
2021/08/09 05:41:26;;;;;;;7.20;2.80;;;;;;;;;;5035070;28;20569;-52
2021/08/09 05:43:52;;;;;;;8.45;3.30;;;;;;;;;;5035050;28;20056;-50
2021/08/09 05:46:18;;;;;;;3.67;2.42;;;;;;;;;;5035007;28;20485;-49
2021/08/09 05:48:44;;;;;;;5.05;2.53;;;;;;;;;;5035132;28;20053;-52
2021/08/09 05:51:10;;;;;;;6.75;3.05;;;;;;;;;;5034952;28;20041;-51
2021/08/09 05:53:37;;;;;;;3.40;2.13;;;;;;;;;;5034833;28;20470;-53
2021/08/09 05:56:03;;;;;;;4.78;2.53;;;;;;;;;;5034875;28;20033;-53
2021/08/09 05:58:29;;;;;;;4.72;2.47;;;;;;;;;;5034759;28;20025;-52
2021/08/09 06:00:55;;;;;;;5.00;2.85;;;;;;;;;;5034768;28;20045;-53
2021/08/09 06:03:24;;;;;;;3.88;2.70;;;;;;;;;;5034590;28;20033;-52
2021/08/09 06:05:53;;;;;;;4.38;2.83;;;;;;;;;;5034852;28;20370;-54
2021/08/09 06:08:19;;;;;;;11.20;10.13;;;;;;;;;;5034761;28;20112;-51
2021/08/09 06:10:45;;;;;;;14.25;9.55;;;;;;;;;;5034346;28;20043;-52
2021/08/09 06:13:11;;;;;;;18.23;10.90;;;;;;;;;;5034591;28;20018;-52
2021/08/09 06:15:37;;;;;;;23.65;13.75;;;;;;;;;;5034539;28;20359;-53
2021/08/09 06:18:03;;;;;;;17.15;13.15;;;;;;;;;;5034308;28;20025;-52
2021/08/09 06:20:30;;;;;;;8.20;4.93;;;;;;;;;;5034333;28;20103;-52
2021/08/09 06:22:57;;;;;;;5.82;3.00;;;;;;;;;;5034394;28;20018;-53
2021/08/09 06:25:23;;;;;;;7.22;4.72;;;;;;;;;;5034294;28;20026;-53
2021/08/09 06:27:50;;;;;;;8.90;4.70;;;;;;;;;;5034322;28;20477;-54
2021/08/09 06:30:16;;;;;;;7.35;5.55;;;;;;;;;;5034170;28;20038;-54
2021/08/09 06:32:43;;;;;;;15.55;8.57;;;;;;;;;;5034083;28;20049;-53
2021/08/09 06:35:09;;;;;;;26.85;16.10;;;;;;;;;;5034087;28;20436;-54
2021/08/09 06:37:35;;;;;;;16.63;12.85;;;;;;;;;;5034303;28;20022;-55
2021/08/09 06:40:02;;;;;;;8.10;5.43;;;;;;;;;;5034131;28;20497;-54
2021/08/09 06:42:28;;;;;;;7.53;4.32;;;;;;;;;;5034299;28;20022;-54
2021/08/09 06:44:54;;;;;;;6.45;3.22;;;;;;;;;;5034005;28;20044;-55
2021/08/09 06:47:20;;;;;;;21.92;17.63;;;;;;;;;;5034087;28;20358;-55
2021/08/09 06:49:46;;;;;;;12.98;6.45;;;;;;;;;;5033888;28;20112;-54
2021/08/09 06:52:12;;;;;;;16.08;7.70;;;;;;;;;;5033879;28;20036;-55
2021/08/09 06:54:38;;;;;;;27.05;15.07;;;;;;;;;;5033811;28;20064;-54
2021/08/09 06:57:06;;;;;;;53.50;39.60;;;;;;;;;;5033628;28;20026;-55
2021/08/09 06:59:34;;;;;;;18.90;13.40;;;;;;;;;;5033423;28;20370;-55
2021/08/09 07:02:00;;;;;;;9.60;5.50;;;;;;;;;;5033652;28;20045;-56
2021/08/09 07:04:26;;;;;;;4.95;3.63;;;;;;;;;;5033647;28;20021;-55
2021/08/09 07:06:53;;;;;;;5.70;3.15;;;;;;;;;;5033561;28;20029;-55
2021/08/09 07:09:21;;;;;;;9.65;4.40;;;;;;;;;;5033412;28;20069;-55
2021/08/09 07:11:47;;;;;;;10.45;4.90;;;;;;;;;;5033262;28;20113;-55
2021/08/09 07:14:16;;;;;;;23.20;17.00;;;;;;;;;;5033362;28;20503;-50
2021/08/09 07:16:42;;;;;;;42.58;29.05;;;;;;;;;;5033343;28;20039;-51
2021/08/09 07:19:09;;;;;;;73.63;58.40;;;;;;;;;;5033250;28;20022;-52
2021/08/09 07:21:35;;;;;;;36.80;28.50;;;;;;;;;;5032937;28;20021;-49
2021/08/09 07:24:01;;;;;;;26.80;21.10;;;;;;;;;;5033162;28;20026;-52
2021/08/09 07:26:27;;;;;;;51.17;43.90;;;;;;;;;;5033177;28;20029;-49
2021/08/09 07:28:53;;;;;;;23.23;12.82;;;;;;;;;;5033059;28;20045;-49
2021/08/09 07:31:19;;;;;;;31.45;23.50;;;;;;;;;;5032934;28;20390;-53
2021/08/09 07:33:47;;;;;;;19.48;15.48;;;;;;;;;;5033107;28;20025;-52
2021/08/09 07:36:13;;;;;;;23.33;16.00;;;;;;;;;;5033209;28;20032;-56
2021/08/09 07:38:39;;;;;;;57.40;37.25;;;;;;;;;;5033162;28;20205;-53
2021/08/09 07:41:05;;;;;;;89.10;66.80;;;;;;;;;;5032559;28;20029;-51
2021/08/09 07:43:32;;;;;;;84.65;70.00;;;;;;;;;;5035344;28;20013;-50
2021/08/09 07:45:58;;;;;;;38.00;28.23;;;;;;;;;;5036747;28;20014;-49
2021/08/09 07:48:24;;;;;;;40.15;33.38;;;;;;;;;;5036638;28;20108;-50
2021/08/09 07:50:50;;;;;;;57.47;41.50;;;;;;;;;;5036628;28;20029;-51
2021/08/09 07:53:16;;;;;;;31.70;22.92;;;;;;;;;;5036604;28;20022;-48
2021/08/09 07:55:43;;;;;;;10.70;5.95;;;;;;;;;;5036610;28;20486;-52
2021/08/09 07:58:09;;;;;;;9.60;6.90;;;;;;;;;;5036520;28;20021;-50
2021/08/09 08:00:35;;;;;;;138.82;112.43;;;;;;;;;;5036207;28;20057;-52
2021/08/09 08:03:01;;;;;;;65.03;52.45;;;;;;;;;;5027704;28;20075;-51
2021/08/09 08:05:27;;;;;;;23.55;18.90;;;;;;;;;;5017028;28;20104;-50
2021/08/09 08:07:54;;;;;;;15.05;9.75;;;;;;;;;;5017135;28;20030;-48
2021/08/09 08:10:20;;;;;;;16.83;9.88;;;;;;;;;;5016953;28;20128;-46
2021/08/09 08:12:46;;;;;;;7.47;5.63;;;;;;;;;;5016965;28;20033;-47
2021/08/09 08:15:12;;;;;;;79.05;65.70;;;;;;;;;;5017018;28;20164;-46
2021/08/09 08:17:38;;;;;;;9.52;7.20;;;;;;;;;;5016806;28;20026;-48
2021/08/09 08:20:05;;;;;;;20.65;16.05;;;;;;;;;;5016788;28;20022;-49
2021/08/09 08:22:31;;;;;;;53.25;35.45;;;;;;;;;;5016841;28;20546;-53
2021/08/09 08:25:00;;;;;;;265.02;227.38;;;;;;;;;;5016682;28;20030;-53
2021/08/09 08:27:28;;;;;;;104.85;41.00;;;;;;;;;;5016947;28;20161;-52
2021/08/09 08:29:54;;;;;;;12.25;5.18;;;;;;;;;;5016561;28;20069;-52
2021/08/09 08:32:20;;;;;;;18.80;7.68;;;;;;;;;;5020096;28;20030;-52
2021/08/09 08:34:48;;;;;;;13.48;7.63;;;;;;;;;;5036395;28;20018;-50
2021/08/09 08:37:14;;;;;;;8.93;4.88;;;;;;;;;;5036548;28;20056;-48
2021/08/09 08:39:40;;;;;;;10.35;6.05;;;;;;;;;;5036198;28;20037;-52
2021/08/09 08:42:06;;;;;;;8.95;4.03;;;;;;;;;;5036080;28;20493;-53
2021/08/09 08:44:32;;;;;;;6.88;4.20;;;;;;;;;;5036116;28;20041;-52
2021/08/09 08:46:59;;;;;;;20.20;7.28;;;;;;;;;;5035899;28;20021;-53
2021/08/09 08:49:26;;;;;;;4.53;2.90;;;;;;;;;;5036271;28;20053;-52
2021/08/09 08:51:52;;;;;;;7.18;4.13;;;;;;;;;;5035849;28;20025;-53
2021/08/09 08:54:19;;;;;;;13.43;6.78;;;;;;;;;;5035723;28;20030;-52
2021/08/09 08:56:45;;;;;;;8.70;3.97;;;;;;;;;;5035924;28;20036;-51
2021/08/09 08:59:14;;;;;;;6.68;3.00;;;;;;;;;;5035550;28;20036;-50
2021/08/09 09:01:43;;;;;;;4.43;2.47;;;;;;;;;;5035818;28;20080;-49
2021/08/09 09:04:28;;;;;;;6.80;3.30;;;;;;;;;;5035712;28;20021;-52
2021/08/09 09:07:05;;;;;;;4.38;2.35;;;;;;;;;;5035846;28;20029;-52
2021/08/09 09:09:37;;;;;;;5.85;4.75;;;;;;;;;;5035565;28;20072;-52
2021/08/09 09:12:20;;;;;;;7.63;4.78;;;;;;;;;;5035569;28;20042;-51
2021/08/09 09:15:00;;;;;;;3.72;2.63;;;;;;;;;;5035486;28;20022;-51
2021/08/09 09:17:36;;;;;;;6.82;3.20;;;;;;;;;;5035424;28;20490;-51
2021/08/09 09:20:22;;;;;;;3.75;2.83;;;;;;;;;;5035583;28;20022;-51
2021/08/09 09:22:48;;;;;;;4.90;2.53;;;;;;;;;;5034258;28;20113;-51
2021/08/09 09:25:14;;;;;;;4.55;3.10;;;;;;;;;;5035375;28;20110;-52
2021/08/09 09:27:40;;;;;;;6.22;2.80;;;;;;;;;;5035384;28;20096;-53
2021/08/09 09:30:25;;;;;;;5.45;2.88;;;;;;;;;;5035263;28;20041;-53
2021/08/09 09:33:01;;;;;;;5.32;2.92;;;;;;;;;;5035216;28;20029;-48
2021/08/09 09:35:27;;;;;;;13.75;8.05;;;;;;;;;;5035147;28;20063;-47
2021/08/09 09:37:53;;;;;;;5.30;3.70;;;;;;;;;;5035060;28;20026;-50
2021/08/09 09:40:20;;;;;;;13.85;9.73;;;;;;;;;;5035008;28;20033;-50
2021/08/09 09:42:47;;;;;;;9.93;7.55;;;;;;;;;;5034674;28;20027;-48
2021/08/09 09:45:20;;;;;;;5.88;5.28;;;;;;;;;;5034484;28;20022;-51
2021/08/09 09:47:58;;;;;;;9.38;4.70;;;;;;;;;;5034475;28;20022;-53
2021/08/09 09:50:24;;;;;;;7.65;2.70;;;;;;;;;;5032699;28;20038;-50
2021/08/09 09:52:51;;;;;;;5.55;3.05;;;;;;;;;;5034574;28;20025;-51
2021/08/09 09:55:17;;;;;;;21.98;16.10;;;;;;;;;;5031949;28;20032;-52
2021/08/09 09:57:44;;;;;;;24.45;19.27;;;;;;;;;;5033348;28;20037;-52
2021/08/09 10:00:12;;;;;;;24.35;17.08;;;;;;;;;;5023482;28;20091;-54
2021/08/09 10:02:39;;;;;;;51.00;38.33;;;;;;;;;;5013212;28;20101;-51
2021/08/09 10:05:05;;;;;;;15.40;10.52;;;;;;;;;;5012885;28;20022;-54
2021/08/09 10:07:34;;;;;;;13.70;10.18;;;;;;;;;;5014425;28;20561;-50
2021/08/09 10:10:00;;;;;;;25.92;20.33;;;;;;;;;;5014814;28;20038;-51
2021/08/09 10:12:28;;;;;;;15.77;12.07;;;;;;;;;;5014878;28;20360;-56
2021/08/09 10:14:55;;;;;;;4.30;2.72;;;;;;;;;;5014583;28;20029;-56
2021/08/09 10:17:27;;;;;;;4.40;2.20;;;;;;;;;;5014518;28;20014;-56
2021/08/09 10:19:55;;;;;;;7.57;3.92;;;;;;;;;;5014444;28;20056;-56
2021/08/09 10:22:22;;;;;;;14.13;11.75;;;;;;;;;;5014458;28;20032;-53
2021/08/09 10:24:51;;;;;;;8.57;5.45;;;;;;;;;;5014511;28;20030;-56
2021/08/09 10:27:17;;;;;;;21.17;14.20;;;;;;;;;;5014462;28;20158;-57
2021/08/09 10:30:03;;;;;;;7.28;5.20;;;;;;;;;;5020478;28;20029;-55
2021/08/09 10:32:41;;;;;;;12.63;8.45;;;;;;;;;;5033927;28;20026;-53
2021/08/09 10:35:28;;;;;;;10.25;5.97;;;;;;;;;;5034214;28;20032;-53
2021/08/09 10:38:13;;;;;;;8.80;6.72;;;;;;;;;;5034020;28;20026;-53
2021/08/09 10:40:39;;;;;;;4.78;4.25;;;;;;;;;;5034073;28;20018;-56
2021/08/09 10:43:05;;;;;;;6.28;4.70;;;;;;;;;;5033819;28;20027;-56
2021/08/09 10:45:41;;;;;;;19.75;12.80;;;;;;;;;;5033849;28;20557;-55
2021/08/09 10:48:09;;;;;;;16.15;10.57;;;;;;;;;;5033734;28;20029;-54
2021/08/09 10:50:39;;;;;;;5.82;4.35;;;;;;;;;;5033708;28;20046;-53
2021/08/09 10:53:25;;;;;;;6.03;3.33;;;;;;;;;;5033677;28;20056;-52
2021/08/09 10:55:58;;;;;;;20.75;17.10;;;;;;;;;;5033746;28;20057;-55
2021/08/09 10:58:46;;;;;;;19.52;16.70;;;;;;;;;;5033594;28;20024;-53
2021/08/09 11:01:13;;;;;;;15.73;14.05;;;;;;;;;;5033324;28;20088;-53
2021/08/09 11:04:03;;;;;;;73.30;62.90;;;;;;;;;;5033552;28;20029;-52
2021/08/09 11:06:53;;;;;;;23.50;18.00;;;;;;;;;;5033740;28;20026;-58
2021/08/09 11:09:32;;;;;;;11.48;7.95;;;;;;;;;;5033489;28;20378;-57
2021/08/09 11:12:17;;;;;;;10.77;6.97;;;;;;;;;;5033422;28;20041;-54
2021/08/09 11:14:55;;;;;;;18.65;14.15;;;;;;;;;;5033500;28;20025;-52
2021/08/09 11:17:22;;;;;;;7.90;5.25;;;;;;;;;;5032569;28;20104;-55
2021/08/09 11:19:48;;;;;;;5.25;4.65;;;;;;;;;;5033221;28;20477;-55
2021/08/09 11:22:18;;;;;;;13.98;12.40;;;;;;;;;;5033252;28;20021;-54
2021/08/09 11:24:44;;;;;;;8.82;6.72;;;;;;;;;;5033166;28;20026;-51
2021/08/09 11:27:10;;;;;;;19.08;17.05;;;;;;;;;;5032982;28;20462;-53
2021/08/09 11:29:58;;;;;;;28.38;25.15;;;;;;;;;;5027292;28;20041;-56
2021/08/09 11:32:36;;;;;;;13.07;8.63;;;;;;;;;;5014193;28;20036;-55
2021/08/09 11:35:03;;;;;;;33.65;26.25;;;;;;;;;;5013779;28;20450;-53
2021/08/09 11:37:29;;;;;;;23.45;20.92;;;;;;;;;;5013473;28;20482;-55
2021/08/09 11:39:55;;;;;;;8.18;7.00;;;;;;;;;;5012296;28;20026;-51
2021/08/09 11:42:21;;;;;;;10.95;6.38;;;;;;;;;;5013330;28;20057;-49
2021/08/09 11:44:48;;;;;;;3.72;2.95;;;;;;;;;;5013475;28;20038;-50
2021/08/09 11:47:20;;;;;;;39.80;34.92;;;;;;;;;;5013264;28;20037;-50
2021/08/09 11:49:46;;;;;;;27.77;21.80;;;;;;;;;;5013151;28;20033;-49
2021/08/09 11:52:22;;;;;;;38.58;33.00;;;;;;;;;;5013259;28;20038;-50
2021/08/09 11:54:48;;;;;;;19.05;16.63;;;;;;;;;;5013496;28;20019;-52
2021/08/09 11:57:14;;;;;;;69.60;62.20;;;;;;;;;;5013284;28;20080;-50
2021/08/09 11:59:41;;;;;;;12.15;8.10;;;;;;;;;;5012865;28;20371;-51
2021/08/09 12:02:26;;;;;;;15.15;12.38;;;;;;;;;;5031471;28;20080;-49
2021/08/09 12:05:10;;;;;;;7.82;3.58;;;;;;;;;;5032634;28;20033;-55
2021/08/09 12:07:36;;;;;;;54.97;45.30;;;;;;;;;;5032791;28;20026;-54
2021/08/09 12:10:03;;;;;;;29.92;25.80;;;;;;;;;;5011308;23;20076;-56
2021/08/09 12:12:36;;;;;;;14.40;11.65;;;;;;;;;;4993439;28;20035;-56
2021/08/09 12:15:03;;;;;;;11.00;8.20;;;;;;;;;;4993981;28;20541;-57
2021/08/09 12:17:29;;;;;;;12.88;9.32;;;;;;;;;;4994367;28;20442;-54
2021/08/09 12:19:55;;;;;;;7.25;5.95;;;;;;;;;;4994329;28;20474;-56
2021/08/09 12:22:25;;;;;;;9.35;6.72;;;;;;;;;;4993601;28;20030;-54
2021/08/09 12:25:11;;;;;;;14.18;7.22;;;;;;;;;;4993741;28;20019;-54
2021/08/09 12:27:37;;;;;;;20.23;10.60;;;;;;;;;;4993444;28;20046;-56
2021/08/09 12:30:09;;;;;;;15.00;8.82;;;;;;;;;;4996666;28;20034;-58
2021/08/09 12:32:36;;;;;;;27.92;21.15;;;;;;;;;;4997049;28;20166;-56
2021/08/09 12:35:03;;;;;;;33.55;20.80;;;;;;;;;;4997038;28;20548;-57
2021/08/09 12:37:29;;;;;;;126.10;87.95;;;;;;;;;;4996897;28;20417;-56
2021/08/09 12:40:10;;;;;;;93.60;59.80;;;;;;;;;;4996779;28;20494;-56
2021/08/09 12:42:36;;;;;;;47.38;24.70;;;;;;;;;;4996796;28;20389;-56
2021/08/09 12:45:03;;;;;;;12.80;7.53;;;;;;;;;;4996804;28;20019;-54
2021/08/09 12:47:29;;;;;;;93.35;43.63;;;;;;;;;;4996847;28;20049;-53
2021/08/09 12:49:57;;;;;;;79.72;36.53;;;;;;;;;;4996619;28;20150;-53
2021/08/09 12:52:23;;;;;;;40.63;18.13;;;;;;;;;;4996627;28;20524;-52
2021/08/09 12:54:49;;;;;;;19.83;9.98;;;;;;;;;;4996681;28;20045;-52
2021/08/09 12:57:16;;;;;;;10.07;5.05;;;;;;;;;;4996663;28;20494;-49
2021/08/09 12:59:42;;;;;;;10.45;5.10;;;;;;;;;;4996519;28;20390;-53
2021/08/09 13:02:09;;;;;;;11.48;3.80;;;;;;;;;;4996654;28;20019;-49
2021/08/09 13:04:35;;;;;;;8.68;3.50;;;;;;;;;;4995853;28;20027;-48
2021/08/09 13:07:01;;;;;;;7.13;3.25;;;;;;;;;;4996016;28;20026;-56
2021/08/09 13:09:31;;;;;;;7.65;4.35;;;;;;;;;;4995519;28;20046;-56
2021/08/09 13:11:57;;;;;;;;;;;;;;;;;;4996336;28;20061;-57
2021/08/09 13:14:23;;;;;;;5.65;3.78;;;;;;;;;;4995879;28;19906;-55
2021/08/09 13:16:49;;;;;;;7.30;2.75;;;;;;;;;;4996306;28;20070;-55
2021/08/09 13:19:15;;;;;;;3.30;2.33;;;;;;;;;;4996208;28;20026;-56
2021/08/09 13:21:42;;;;;;;4.65;3.45;;;;;;;;;;4996127;28;20026;-56
2021/08/09 13:24:08;;;;;;;8.98;3.60;;;;;;;;;;4994554;28;20030;-55
2021/08/09 13:26:34;;;;;;;8.20;2.75;;;;;;;;;;4995820;28;20105;-55
2021/08/09 13:29:00;;;;;;;12.10;6.57;;;;;;;;;;4995808;28;20367;-57
2021/08/09 13:31:27;;;;;;;20.70;10.27;;;;;;;;;;4994114;28;20061;-50
2021/08/09 13:33:53;;;;;;;40.92;29.58;;;;;;;;;;4988382;28;20050;-51
2021/08/09 13:36:20;;;;;;;21.00;14.43;;;;;;;;;;4987349;28;20104;-51
2021/08/09 13:38:47;;;;;;;15.00;9.15;;;;;;;;;;4965652;28;20023;-51
2021/08/09 13:41:13;;;;;;;37.00;28.83;;;;;;;;;;4963457;28;20360;-52
2021/08/09 13:43:39;;;;;;;26.25;21.77;;;;;;;;;;4965710;28;20023;-55
2021/08/09 13:46:08;;;;;;;9.48;7.88;;;;;;;;;;4964989;28;20343;-54
2021/08/09 13:48:38;;;;;;;10.18;7.43;;;;;;;;;;4965685;28;20735;-56
2021/08/09 13:51:05;;;;;;;10.98;7.22;;;;;;;;;;4965353;28;20085;-56
2021/08/09 13:53:31;;;;;;;12.40;7.65;;;;;;;;;;4964434;28;20046;-53
2021/08/09 13:55:58;;;;;;;16.65;8.95;;;;;;;;;;4964357;28;20643;-50
2021/08/09 13:58:24;;;;;;;7.57;4.95;;;;;;;;;;4963854;28;20050;-53
2021/08/09 14:00:52;;;;;;;5.22;3.63;;;;;;;;;;4964139;28;20030;-53
2021/08/09 14:03:18;;;;;;;8.48;6.55;;;;;;;;;;4964126;28;20525;-52
2021/08/09 14:05:45;;;;;;;8.15;4.65;;;;;;;;;;4964145;28;20026;-50
2021/08/09 14:08:11;;;;;;;8.90;4.50;;;;;;;;;;4963365;28;20025;-53
2021/08/09 14:10:37;;;;;;;8.40;3.65;;;;;;;;;;4964610;28;20066;-55
2021/08/09 14:13:03;;;;;;;6.80;3.60;;;;;;;;;;4964688;28;20089;-52
2021/08/09 14:15:29;;;;;;;4.32;3.47;;;;;;;;;;4964213;28;20691;-50
2021/08/09 14:17:58;;;;;;;6.90;3.45;;;;;;;;;;4963884;28;20129;-51
2021/08/09 14:20:24;;;;;;;9.95;3.40;;;;;;;;;;4972606;28;20049;-49
2021/08/09 14:22:50;;;;;;;6.22;2.97;;;;;;;;;;4964000;28;20038;-56
2021/08/09 14:25:16;;;;;;;3.90;3.22;;;;;;;;;;4963891;28;20026;-55
2021/08/09 14:27:43;;;;;;;6.85;3.65;;;;;;;;;;4963603;28;20022;-53
2021/08/09 14:30:09;;;;;;;4.45;3.90;;;;;;;;;;4963392;28;20071;-56
2021/08/09 14:32:37;;;;;;;4.18;3.10;;;;;;;;;;4964617;28;20109;-54
2021/08/09 14:35:06;;;;;;;4.00;3.60;;;;;;;;;;4963614;28;20130;-50